Time;durP1;ratioP1;P1;durP2;ratioP2;P2;SDS_P1;SDS_P2;PMS_P1;PMS_P2;Temp;Humidity;BMP_temperature;BMP_pressure;BME280_temperature;BME280_humidity;BME280_pressure;Samples;Min_cycle;Max_cycle;Signal;HPM_P1;HPM_P2
2023/10/12 00:02:00;;;;;;;4.03;0.60;;;14.60;99.90;;;;;;5059515;28;20076;-34
2023/10/12 00:05:31;;;;;;;2.60;0.40;;;14.60;99.90;;;;;;5062757;28;20128;-34
2023/10/12 00:07:33;;;;;;;3.45;0.50;;;14.50;99.90;;;;;;5040557;28;20054;-34
2023/10/12 00:10:19;;;;;;;3.22;0.50;;;14.50;99.90;;;;;;5062093;28;20456;-35
2023/10/12 00:12:46;;;;;;;3.33;0.47;;;14.50;99.90;;;;;;5060174;28;20494;-34
2023/10/12 00:15:28;;;;;;;4.18;0.43;;;14.50;99.90;;;;;;5057642;28;20572;-34
2023/10/12 00:17:56;;;;;;;;;;;14.50;99.90;;;;;;5058547;28;20495;-34
2023/10/12 00:20:34;;;;;;;4.13;0.40;;;14.60;99.90;;;;;;5057628;28;20290;-35
2023/10/12 00:23:10;;;;;;;2.50;0.50;;;14.50;99.90;;;;;;5065727;28;20523;-35
2023/10/12 00:25:45;;;;;;;4.45;0.75;;;14.50;99.90;;;;;;5058799;28;20101;-34
2023/10/12 00:28:14;;;;;;;6.45;0.70;;;14.50;99.90;;;;;;5064656;28;20082;-34
2023/10/12 00:30:41;;;;;;;4.38;0.50;;;14.40;99.90;;;;;;5056641;28;20134;-34
2023/10/12 00:33:08;;;;;;;2.05;0.30;;;14.40;99.90;;;;;;5074602;28;20066;-34
2023/10/12 00:35:37;;;;;;;3.00;0.57;;;14.30;99.90;;;;;;5060314;28;20533;-35
2023/10/12 00:38:17;;;;;;;3.78;0.60;;;14.30;99.90;;;;;;5044846;28;20106;-34
2023/10/12 00:40:57;;;;;;;3.33;0.43;;;14.40;99.90;;;;;;5060271;28;20487;-35
2023/10/12 00:43:31;;;;;;;4.15;0.47;;;14.40;99.90;;;;;;5071054;28;20131;-35
2023/10/12 00:45:58;;;;;;;2.17;0.50;;;14.30;99.90;;;;;;5071701;28;20047;-35
2023/10/12 00:48:29;;;;;;;1.80;0.50;;;14.30;99.90;;;;;;5072363;28;20555;-34
2023/10/12 00:50:56;;;;;;;2.38;0.50;;;14.30;99.90;;;;;;5072024;28;20501;-35
2023/10/12 00:53:30;;;;;;;3.95;0.50;;;14.30;99.90;;;;;;5074346;28;20127;-35
2023/10/12 00:55:56;;;;;;;3.22;0.45;;;14.30;99.90;;;;;;5062454;28;20041;-35
2023/10/12 00:58:22;;;;;;;2.25;0.60;;;14.30;99.90;;;;;;5061793;28;20051;-35
2023/10/12 01:00:51;;;;;;;4.18;0.40;;;14.30;99.90;;;;;;5076483;28;20497;-34
2023/10/12 01:03:36;;;;;;;2.38;0.32;;;14.30;99.90;;;;;;5065583;28;20493;-34
2023/10/12 01:06:20;;;;;;;4.30;0.57;;;14.30;99.90;;;;;;5061918;28;20105;-35
2023/10/12 01:08:47;;;;;;;6.40;1.25;;;14.30;99.90;;;;;;5071102;28;20052;-36
2023/10/12 01:11:20;;;;;;;3.33;0.52;;;14.30;99.90;;;;;;5065920;28;20059;-36
2023/10/12 01:14:09;;;;;;;2.00;0.50;;;14.30;99.90;;;;;;5065040;28;20187;-36
2023/10/12 01:16:46;;;;;;;4.45;0.65;;;14.30;99.90;;;;;;5047408;28;20036;-36
2023/10/12 01:19:21;;;;;;;2.55;0.77;;;14.30;99.90;;;;;;5076210;28;20139;-36
2023/10/12 01:21:47;;;;;;;6.60;1.02;;;14.20;99.90;;;;;;5061266;28;20509;-35
2023/10/12 01:24:13;;;;;;;3.33;0.40;;;14.20;99.90;;;;;;5065153;28;20072;-36
2023/10/12 01:26:49;;;;;;;2.65;0.50;;;14.20;99.90;;;;;;5066655;28;20582;-36
2023/10/12 01:29:19;;;;;;;2.47;0.60;;;14.10;99.90;;;;;;5066172;28;20103;-36
2023/10/12 01:32:20;;;;;;;1.95;0.47;;;14.10;99.90;;;;;;5069975;28;20129;-36
2023/10/12 01:34:37;;;;;;;4.35;0.50;;;14.10;99.90;;;;;;5058200;28;20135;-36
2023/10/12 01:37:28;;;;;;;3.65;0.80;;;14.00;99.90;;;;;;5060990;28;20186;-36
2023/10/12 01:39:59;;;;;;;3.92;0.52;;;14.00;99.90;;;;;;5062289;28;20494;-35
2023/10/12 01:42:41;;;;;;;4.68;1.10;;;14.00;99.90;;;;;;5061539;28;20207;-35
2023/10/12 01:45:41;;;;;;;5.15;0.52;;;13.90;99.90;;;;;;5058122;28;20067;-35
2023/10/12 01:50:33;;;;;;;2.90;0.45;;;13.90;99.90;;;;;;5064615;28;20071;-36
2023/10/12 01:53:00;;;;;;;4.65;0.50;;;13.90;99.90;;;;;;5055958;28;20579;-36
2023/10/12 01:55:30;;;;;;;3.28;0.47;;;13.90;99.90;;;;;;5064049;28;20057;-36
2023/10/12 01:57:56;;;;;;;4.10;0.85;;;13.90;99.90;;;;;;5048925;28;20406;-36
2023/10/12 02:00:27;;;;;;;3.40;0.50;;;13.80;99.90;;;;;;5069232;28;20385;-36
2023/10/12 02:03:02;;;;;;;6.18;0.70;;;13.80;99.90;;;;;;5065246;28;20109;-37
2023/10/12 02:05:33;;;;;;;3.75;0.50;;;13.70;99.90;;;;;;5062790;28;20049;-41
2023/10/12 02:08:05;;;;;;;3.65;0.60;;;13.70;99.90;;;;;;5060609;28;20502;-36
2023/10/12 02:10:41;;;;;;;5.93;0.80;;;13.70;99.90;;;;;;5065386;28;20446;-36
2023/10/12 02:13:07;;;;;;;3.70;0.80;;;13.70;99.90;;;;;;5059035;28;20091;-36
2023/10/12 02:15:33;;;;;;;5.75;0.80;;;13.60;99.90;;;;;;5065966;28;20066;-36
2023/10/12 02:17:59;;;;;;;3.65;0.70;;;13.70;99.90;;;;;;5061792;28;20056;-36
2023/10/12 02:20:32;;;;;;;4.43;0.57;;;13.70;99.90;;;;;;5065365;28;20140;-36
2023/10/12 02:23:01;;;;;;;4.47;0.75;;;13.70;99.90;;;;;;5045833;28;20049;-35
2023/10/12 02:25:28;;;;;;;4.75;0.80;;;13.70;99.90;;;;;;5063803;28;20070;-36
2023/10/12 02:27:58;;;;;;;5.70;0.95;;;13.70;99.90;;;;;;5060529;28;20052;-36
2023/10/12 02:30:28;;;;;;;3.30;0.65;;;13.70;99.90;;;;;;5060123;28;20059;-36
2023/10/12 02:33:01;;;;;;;2.45;0.47;;;13.70;99.90;;;;;;5062801;28;20071;-36
2023/10/12 02:35:27;;;;;;;;;;;13.70;99.90;;;;;;5060519;28;20490;-36
2023/10/12 02:37:53;;;;;;;6.75;0.73;;;13.70;99.90;;;;;;5058690;28;19924;-36
2023/10/12 02:40:20;;;;;;;3.72;0.50;;;13.70;99.90;;;;;;5062836;28;20076;-36
2023/10/12 02:42:51;;;;;;;4.45;0.80;;;13.70;99.90;;;;;;5042142;28;20044;-36
2023/10/12 02:45:17;;;;;;;6.18;0.80;;;13.60;99.90;;;;;;5064585;28;20053;-36
2023/10/12 02:47:45;;;;;;;3.53;0.50;;;13.60;99.90;;;;;;5060453;28;20053;-36
2023/10/12 02:52:44;;;;;;;7.82;0.80;;;13.70;99.90;;;;;;5065326;28;20071;-36
2023/10/12 02:57:53;;;;;;;6.07;0.80;;;13.70;99.90;;;;;;5062188;28;20090;-36
2023/10/12 03:00:32;;;;;;;4.00;0.77;;;13.70;99.90;;;;;;5074739;28;20161;-36
2023/10/12 03:03:05;;;;;;;4.63;0.70;;;13.70;99.90;;;;;;5052935;28;20048;-36
2023/10/12 03:05:34;;;;;;;4.22;0.57;;;13.80;99.90;;;;;;5065617;28;20048;-38
2023/10/12 03:08:06;;;;;;;2.60;0.65;;;13.80;99.90;;;;;;5060188;28;20170;-36
2023/10/12 03:10:32;;;;;;;6.88;1.00;;;13.80;99.90;;;;;;5063409;28;20057;-36
2023/10/12 03:13:04;;;;;;;4.07;0.50;;;13.90;99.90;;;;;;5060502;28;20517;-34
2023/10/12 03:15:42;;;;;;;5.03;0.80;;;13.90;99.90;;;;;;5061806;28;20498;-33
2023/10/12 03:18:11;;;;;;;5.88;0.80;;;13.80;99.90;;;;;;5060736;28;20055;-35
2023/10/12 03:20:38;;;;;;;2.95;0.30;;;13.70;99.90;;;;;;5067669;28;20628;-34
2023/10/12 03:23:13;;;;;;;2.75;0.43;;;13.70;99.90;;;;;;5064229;28;20074;-34
2023/10/12 03:25:46;;;;;;;4.57;0.60;;;13.70;99.90;;;;;;5071164;28;20056;-33
2023/10/12 03:28:35;;;;;;;7.57;0.70;;;13.70;99.90;;;;;;5078808;28;20135;-33
2023/10/12 03:33:52;;;;;;;4.15;0.52;;;13.60;99.90;;;;;;5084046;28;20040;-34
2023/10/12 03:36:22;;;;;;;6.32;0.82;;;13.70;99.90;;;;;;5066132;28;20131;-34
2023/10/12 03:47:28;;;;;;;6.25;0.70;;;13.60;99.90;;;;;;5080395;28;20702;-35
2023/10/12 03:49:58;;;;;;;4.82;0.82;;;13.60;99.90;;;;;;5072772;28;20051;-34
2023/10/12 03:52:42;;;;;;;4.43;0.63;;;13.60;99.90;;;;;;5067491;28;20494;-34
2023/10/12 04:02:42;;;;;;;3.88;0.95;;;13.70;99.90;;;;;;5070593;28;20060;-34
2023/10/12 04:08:54;;;;;;;4.45;0.68;;;13.70;99.90;;;;;;5075052;28;20056;-35
2023/10/12 04:16:45;;;;;;;4.10;0.70;;;13.70;99.90;;;;;;5080396;28;20044;-34
2023/10/12 04:21:22;;;;;;;5.18;0.65;;;13.70;99.90;;;;;;5074362;28;20520;-35
2023/10/12 04:29:13;;;;;;;6.18;0.90;;;13.60;99.90;;;;;;5083951;28;20055;-35
2023/10/12 04:34:11;;;;;;;6.32;0.77;;;13.60;99.90;;;;;;5081406;28;20059;-34
2023/10/12 04:39:15;;;;;;;4.35;0.65;;;13.60;99.90;;;;;;5064118;28;20055;-39
2023/10/12 04:46:51;;;;;;;5.65;0.95;;;13.60;99.90;;;;;;5078881;28;20539;-35
2023/10/12 04:51:50;;;;;;;3.83;1.00;;;13.60;99.90;;;;;;5081792;28;20040;-39
2023/10/12 04:54:25;;;;;;;4.43;0.90;;;13.60;99.90;;;;;;5081184;28;20109;-34
2023/10/12 04:57:11;;;;;;;6.07;1.08;;;13.60;99.90;;;;;;5082923;28;20602;-35
2023/10/12 05:02:22;;;;;;;8.23;1.30;;;13.70;99.90;;;;;;5064004;28;20101;-34
2023/10/12 05:05:14;;;;;;;3.63;0.70;;;13.60;99.90;;;;;;5079192;28;20108;-34
2023/10/12 05:07:53;;;;;;;3.83;1.00;;;13.70;99.90;;;;;;5075495;28;20044;-34
2023/10/12 05:10:41;;;;;;;3.53;0.80;;;13.70;99.90;;;;;;5077954;28;20044;-34
2023/10/12 05:13:10;;;;;;;3.17;0.60;;;13.60;99.90;;;;;;5063876;28;20067;-33
2023/10/12 05:18:37;;;;;;;4.90;0.80;;;13.60;99.90;;;;;;5050348;28;20309;-35
2023/10/12 05:21:08;;;;;;;7.10;1.13;;;13.60;99.90;;;;;;5088539;28;20101;-36
2023/10/12 05:23:34;;;;;;;3.30;0.70;;;13.60;99.90;;;;;;5075566;28;20062;-36
2023/10/12 05:28:31;;;;;;;6.72;1.83;;;13.60;99.90;;;;;;5074519;28;20047;-36
2023/10/12 05:36:04;;;;;;;7.00;1.02;;;13.50;99.90;;;;;;5078664;28;20391;-36
2023/10/12 05:38:36;;;;;;;4.78;1.00;;;13.50;99.90;;;;;;5069948;28;20058;-36
2023/10/12 05:41:08;;;;;;;4.83;1.00;;;13.50;99.90;;;;;;5072726;28;20044;-35
2023/10/12 05:43:36;;;;;;;6.60;1.20;;;13.50;99.90;;;;;;5076341;28;20822;-35
2023/10/12 05:46:15;;;;;;;6.35;1.15;;;13.50;99.90;;;;;;5067033;28;20094;-36
2023/10/12 05:48:45;;;;;;;4.78;0.80;;;13.60;99.90;;;;;;5074427;28;20048;-36
2023/10/12 05:51:19;;;;;;;7.40;1.00;;;13.60;99.90;;;;;;5064112;28;20643;-36
2023/10/12 05:54:06;;;;;;;4.55;1.30;;;13.60;99.90;;;;;;5077014;28;20510;-35
2023/10/12 05:56:35;;;;;;;4.07;0.90;;;13.60;99.90;;;;;;5067899;28;20056;-36
2023/10/12 05:59:01;;;;;;;3.20;0.65;;;13.50;99.90;;;;;;5071291;28;20055;-36
2023/10/12 06:01:33;;;;;;;3.03;0.80;;;13.50;99.90;;;;;;5071461;28;20043;-35
2023/10/12 06:03:59;;;;;;;3.70;0.90;;;13.60;99.90;;;;;;5080270;28;20157;-36
2023/10/12 06:06:25;;;;;;;6.07;1.23;;;13.60;99.90;;;;;;5065032;28;20570;-36
2023/10/12 06:08:54;;;;;;;6.22;0.90;;;13.50;99.90;;;;;;5075632;28;20070;-35
2023/10/12 06:11:29;;;;;;;4.63;1.08;;;13.50;99.90;;;;;;5081340;28;20082;-36
2023/10/12 06:13:57;;;;;;;5.85;0.75;;;13.50;99.90;;;;;;5062878;28;20087;-36
2023/10/12 06:16:25;;;;;;;4.55;0.80;;;13.50;99.90;;;;;;5083643;28;20040;-36
2023/10/12 06:18:54;;;;;;;5.68;1.30;;;13.50;99.90;;;;;;5076299;28;20439;-36
2023/10/12 06:21:19;;;;;;;5.05;1.52;;;13.60;99.90;;;;;;5065864;28;20047;-36
2023/10/12 06:23:50;;;;;;;5.75;1.67;;;13.50;99.90;;;;;;5065186;28;20049;-36
2023/10/12 06:26:34;;;;;;;5.65;1.35;;;13.50;99.90;;;;;;5066946;28;20044;-36
2023/10/12 06:29:01;;;;;;;5.13;1.17;;;13.50;99.90;;;;;;5065750;28;20502;-36
2023/10/12 06:31:30;;;;;;;4.57;1.00;;;13.50;99.90;;;;;;5061750;28;20048;-35
2023/10/12 06:33:56;;;;;;;4.88;1.00;;;13.50;99.90;;;;;;5053541;28;20052;-37
2023/10/12 06:36:38;;;;;;;3.05;0.90;;;13.50;99.90;;;;;;5055029;28;20056;-37
2023/10/12 06:44:22;;;;;;;3.45;1.00;;;13.50;99.90;;;;;;5057177;28;20147;-35
2023/10/12 06:46:49;;;;;;;5.13;1.00;;;13.50;99.90;;;;;;5034544;28;20106;-36
2023/10/12 06:49:21;;;;;;;3.80;1.20;;;13.50;99.90;;;;;;5055114;28;20072;-35
2023/10/12 06:52:00;;;;;;;5.93;0.90;;;13.50;99.90;;;;;;5044139;28;20080;-35
2023/10/12 06:54:49;;;;;;;3.95;1.33;;;13.50;99.90;;;;;;5054997;28;20048;-35
2023/10/12 07:02:29;;;;;;;6.50;1.08;;;13.50;99.90;;;;;;5063335;28;20051;-35
2023/10/12 07:05:00;;;;;;;4.13;1.27;;;13.50;99.90;;;;;;5067534;28;20684;-36
2023/10/12 07:07:28;;;;;;;4.00;0.93;;;13.50;99.90;;;;;;5063667;28;20043;-35
2023/10/12 07:10:20;;;;;;;4.10;1.02;;;13.60;99.90;;;;;;5064749;28;20049;-35
2023/10/12 07:12:52;;;;;;;2.97;0.82;;;13.60;99.90;;;;;;5057713;28;20048;-36
2023/10/12 07:15:21;;;;;;;7.72;1.75;;;13.60;99.90;;;;;;5057493;28;20057;-35
2023/10/12 07:17:50;;;;;;;5.55;1.42;;;13.60;99.90;;;;;;5060796;28;20117;-35
2023/10/12 07:23:28;;;;;;;6.93;1.02;;;13.60;99.90;;;;;;5066428;28;20071;-35
2023/10/12 07:25:48;;;;;;;5.10;1.25;;;13.60;99.90;;;;;;5081130;28;20081;-35
2023/10/12 07:28:19;;;;;;;4.32;0.98;;;13.70;99.90;;;;;;5082012;28;20052;-34
2023/10/12 07:33:33;;;;;;;4.47;0.95;;;13.80;99.90;;;;;;5081312;28;20049;-39
2023/10/12 07:36:10;;;;;;;6.50;1.33;;;13.90;99.90;;;;;;5077493;28;20059;-34
2023/10/12 07:38:35;;;;;;;6.82;1.30;;;14.00;99.90;;;;;;5077008;28;20058;-33
2023/10/12 07:41:03;;;;;;;9.45;1.30;;;14.10;99.90;;;;;;5073570;28;20406;-35
2023/10/12 07:43:32;;;;;;;3.05;1.08;;;14.10;99.90;;;;;;5076040;28;20063;-42
2023/10/12 07:46:14;;;;;;;5.28;1.33;;;14.10;99.90;;;;;;5075184;28;20044;-35
2023/10/12 07:48:42;;;;;;;;;;;14.30;99.90;;;;;;5075803;28;20503;-35
2023/10/12 07:51:30;;;;;;;4.28;0.93;;;14.40;99.90;;;;;;5076526;28;19926;-34
2023/10/12 07:54:00;;;;;;;6.72;0.68;;;14.40;99.90;;;;;;5076304;28;20062;-35
2023/10/12 07:56:33;;;;;;;10.95;1.30;;;14.50;99.90;;;;;;5077353;28;20045;-35
2023/10/12 07:59:00;;;;;;;6.55;0.68;;;14.50;99.90;;;;;;5077433;28;20052;-36
2023/10/12 08:03:58;;;;;;;5.72;0.70;;;14.60;99.90;;;;;;5075773;28;20036;-35
2023/10/12 08:06:42;;;;;;;5.93;0.95;;;14.60;99.90;;;;;;5083501;28;20477;-34
2023/10/12 08:11:55;;;;;;;7.75;1.48;;;14.70;99.90;;;;;;5086398;28;20477;-35
2023/10/12 08:19:44;;;;;;;6.88;0.70;;;14.80;99.90;;;;;;5082913;28;20048;-34
2023/10/12 08:24:59;;;;;;;6.07;1.20;;;14.80;99.90;;;;;;5083351;28;20071;-40
2023/10/12 08:27:39;;;;;;;5.22;1.35;;;14.80;99.90;;;;;;5085827;28;20040;-34
2023/10/12 08:30:19;;;;;;;7.53;0.82;;;14.80;99.90;;;;;;5075426;28;20056;-38
2023/10/12 08:32:55;;;;;;;6.75;1.00;;;14.70;99.90;;;;;;5079578;28;20060;-34
2023/10/12 08:35:39;;;;;;;7.53;1.05;;;14.70;99.90;;;;;;5079938;28;20056;-34
2023/10/12 08:38:15;;;;;;;5.95;1.00;;;14.70;99.90;;;;;;5077061;28;20060;-34
2023/10/12 08:43:43;;;;;;;6.53;0.82;;;14.70;99.90;;;;;;5076120;28;20052;-34
2023/10/12 08:46:11;;;;;;;9.13;0.98;;;14.60;99.90;;;;;;5081068;28;20075;-35
2023/10/12 08:48:52;;;;;;;5.15;0.80;;;14.70;99.90;;;;;;5085701;28;20138;-41
2023/10/12 08:51:28;;;;;;;3.72;0.80;;;14.60;99.90;;;;;;5074197;28;20044;-34
2023/10/12 08:53:58;;;;;;;2.25;0.63;;;14.60;99.90;;;;;;5076808;28;20048;-35
2023/10/12 08:56:26;;;;;;;5.40;0.90;;;14.70;99.90;;;;;;5079628;28;20056;-34
2023/10/12 08:58:57;;;;;;;5.72;0.85;;;14.70;99.90;;;;;;5077356;28;20044;-34
2023/10/12 09:01:23;;;;;;;7.67;1.20;;;14.70;99.90;;;;;;5076935;28;20078;-34
2023/10/12 09:03:53;;;;;;;6.22;0.88;;;14.80;99.90;;;;;;5081245;28;20494;-34
2023/10/12 09:09:04;;;;;;;3.65;0.82;;;14.90;99.90;;;;;;5069285;28;20054;-42
2023/10/12 09:11:33;;;;;;;6.93;0.77;;;14.90;99.90;;;;;;5072955;28;20044;-33
2023/10/12 09:14:00;;;;;;;7.07;0.77;;;14.90;99.90;;;;;;5076516;28;20082;-33
2023/10/12 09:16:27;;;;;;;5.57;0.80;;;14.90;99.90;;;;;;5077687;28;20433;-34
2023/10/12 09:19:00;;;;;;;5.13;0.90;;;14.90;99.90;;;;;;5076478;28;20040;-34
2023/10/12 09:21:39;;;;;;;6.05;0.70;;;14.90;99.90;;;;;;5074916;28;20144;-35
2023/10/12 09:26:46;;;;;;;7.50;0.90;;;14.90;99.90;;;;;;5077313;28;20056;-34
2023/10/12 09:29:23;;;;;;;6.35;1.52;;;14.90;99.90;;;;;;5075068;28;20055;-34
2023/10/12 09:35:11;;;;;;;5.90;1.10;;;15.00;99.90;;;;;;5080878;28;20166;-35
2023/10/12 09:37:51;;;;;;;4.68;1.10;;;15.20;99.90;;;;;;5043605;28;21042;-33
2023/10/12 09:40:27;;;;;;;5.50;1.48;;;15.20;99.90;;;;;;5077077;28;20146;-33
2023/10/12 09:42:59;;;;;;;8.60;1.30;;;15.30;99.90;;;;;;5054380;28;20044;-33
2023/10/12 09:45:30;;;;;;;5.32;1.13;;;15.40;99.90;;;;;;5074001;28;20043;-33
2023/10/12 09:48:05;;;;;;;4.07;0.85;;;15.50;99.90;;;;;;5070543;28;20121;-35
2023/10/12 09:50:33;;;;;;;2.88;0.70;;;15.60;99.90;;;;;;5073012;28;20055;-33
2023/10/12 09:53:12;;;;;;;5.28;1.10;;;15.50;99.90;;;;;;5052512;28;20131;-34
2023/10/12 09:55:45;;;;;;;6.30;1.00;;;15.50;99.90;;;;;;5055847;28;20063;-33
2023/10/12 09:58:15;;;;;;;5.38;1.15;;;15.50;99.90;;;;;;5071231;28;20576;-33
2023/10/12 10:03:35;;;;;;;9.45;1.27;;;15.60;99.90;;;;;;5084623;28;20079;-33
2023/10/12 10:06:11;;;;;;;4.65;1.25;;;15.60;99.90;;;;;;5085792;28;20067;-33
2023/10/12 10:08:45;;;;;;;3.60;0.70;;;15.70;99.90;;;;;;5082942;28;20386;-34
2023/10/12 10:11:12;;;;;;;6.28;1.05;;;15.80;99.90;;;;;;5079626;28;20067;-33
2023/10/12 10:13:53;;;;;;;5.70;0.93;;;15.90;99.90;;;;;;5079903;28;20498;-33
2023/10/12 10:16:20;;;;;;;7.30;1.45;;;16.00;99.90;;;;;;5080432;28;20059;-33
2023/10/12 10:18:56;;;;;;;8.50;0.93;;;16.00;99.90;;;;;;5082162;28;20048;-33
2023/10/12 10:21:28;;;;;;;4.72;1.00;;;16.00;99.90;;;;;;5065274;28;20051;-33
2023/10/12 10:23:57;;;;;;;10.15;1.42;;;16.00;99.90;;;;;;5061844;28;20068;-33
2023/10/12 10:26:30;;;;;;;6.38;0.85;;;15.90;99.90;;;;;;5068864;28;20056;-33
2023/10/12 10:29:08;;;;;;;5.97;0.80;;;15.90;99.90;;;;;;5075380;28;20080;-34
2023/10/12 10:31:41;;;;;;;5.28;0.80;;;15.80;99.90;;;;;;5075687;28;20053;-33
2023/10/12 10:34:09;;;;;;;;;;;15.70;99.90;;;;;;5078530;28;20553;-34
2023/10/12 10:36:35;;;;;;;4.93;0.90;;;15.70;99.90;;;;;;5077120;28;20039;-33
2023/10/12 10:41:54;;;;;;;3.72;1.00;;;15.60;99.90;;;;;;5079001;28;20040;-33
2023/10/12 10:44:22;;;;;;;4.05;1.00;;;15.60;99.90;;;;;;5082733;28;20498;-33
2023/10/12 10:46:57;;;;;;;6.68;0.73;;;15.60;99.90;;;;;;5076552;28;20093;-33
2023/10/12 10:49:30;;;;;;;5.60;0.63;;;15.50;99.90;;;;;;5079163;28;20106;-33
2023/10/12 10:54:39;;;;;;;5.38;0.70;;;15.50;99.90;;;;;;5075960;28;20059;-33
2023/10/12 11:00:10;;;;;;;5.82;0.63;;;15.40;99.90;;;;;;5066347;28;20067;-35
2023/10/12 11:02:37;;;;;;;4.32;0.50;;;15.30;99.90;;;;;;5084123;28;20040;-34
2023/10/12 11:05:09;;;;;;;5.05;0.52;;;15.20;99.90;;;;;;5084903;28;20052;-33
2023/10/12 11:07:36;;;;;;;;;;;15.20;99.90;;;;;;5083515;28;20052;-33
2023/10/12 11:12:31;;;;;;;4.20;0.50;;;15.20;99.90;;;;;;5086167;28;20052;-33
2023/10/12 11:15:01;;;;;;;7.50;1.20;;;15.20;99.90;;;;;;5063844;28;20048;-33
2023/10/12 11:17:35;;;;;;;5.95;0.70;;;15.30;99.90;;;;;;5081090;28;20047;-34
2023/10/12 11:20:07;;;;;;;9.98;1.00;;;15.40;99.90;;;;;;5084257;28;20525;-35
2023/10/12 11:22:33;;;;;;;4.40;0.57;;;15.40;99.90;;;;;;5079296;28;20501;-33
2023/10/12 11:25:01;;;;;;;4.07;0.50;;;15.50;99.90;;;;;;5045893;28;20052;-33
2023/10/12 11:27:34;;;;;;;4.95;0.68;;;15.50;99.90;;;;;;5064939;28;20056;-33
2023/10/12 11:30:00;;;;;;;3.92;0.90;;;15.60;99.90;;;;;;5057638;28;20461;-33
2023/10/12 11:32:28;;;;;;;60.20;7.07;;;15.50;99.90;;;;;;5063623;28;20047;-33
2023/10/12 11:34:59;;;;;;;8.10;0.60;;;15.40;99.90;;;;;;5058428;28;20053;-33
2023/10/12 11:37:27;;;;;;;7.00;1.67;;;15.30;99.90;;;;;;5062050;28;20060;-33
2023/10/12 11:39:54;;;;;;;7.82;0.75;;;15.20;99.90;;;;;;5066601;28;20063;-33
2023/10/12 11:42:20;;;;;;;6.45;0.93;;;15.20;99.90;;;;;;5067522;28;20049;-34
2023/10/12 11:44:47;;;;;;;4.45;0.80;;;15.10;99.90;;;;;;5057694;28;20392;-40
2023/10/12 11:47:23;;;;;;;7.90;1.13;;;15.00;99.90;;;;;;5060004;28;20110;-33
2023/10/12 11:49:58;;;;;;;5.78;0.70;;;14.90;99.90;;;;;;5062647;28;20054;-33
2023/10/12 11:52:34;;;;;;;7.20;0.80;;;14.90;99.90;;;;;;5057770;28;20494;-36
2023/10/12 11:55:00;;;;;;;6.10;0.50;;;14.80;99.90;;;;;;5073090;28;20040;-34
2023/10/12 11:57:27;;;;;;;3.20;0.70;;;14.80;99.90;;;;;;5060197;28;20061;-34
2023/10/12 11:59:52;;;;;;;19.13;2.88;;;14.70;99.90;;;;;;5068185;28;20080;-34
2023/10/12 12:02:19;;;;;;;6.80;0.80;;;14.60;99.90;;;;;;5060233;28;20106;-34
2023/10/12 12:04:45;;;;;;;8.45;0.70;;;14.50;99.90;;;;;;5059576;28;20076;-34
2023/10/12 12:07:13;;;;;;;5.95;0.80;;;14.40;99.90;;;;;;5059354;28;20076;-36
2023/10/12 12:09:48;;;;;;;6.72;0.65;;;14.30;99.90;;;;;;5053372;28;20371;-34
2023/10/12 12:12:16;;;;;;;4.95;0.90;;;14.30;99.90;;;;;;5051702;28;20492;-34
2023/10/12 12:14:49;;;;;;;9.02;1.05;;;14.20;99.90;;;;;;5061580;28;20414;-34
2023/10/12 12:17:17;;;;;;;8.50;0.80;;;14.20;99.90;;;;;;5063986;28;20490;-34
2023/10/12 12:19:43;;;;;;;7.30;0.82;;;14.20;99.90;;;;;;5043282;28;20072;-34
2023/10/12 12:22:15;;;;;;;6.55;0.90;;;14.20;99.90;;;;;;5057275;28;20492;-34
2023/10/12 12:24:44;;;;;;;;;;;14.20;99.90;;;;;;5063178;28;20457;-35
2023/10/12 12:29:55;;;;;;;11.05;0.85;;;14.20;99.90;;;;;;5075203;28;20040;-34
2023/10/12 12:32:20;;;;;;;6.72;0.90;;;14.30;99.90;;;;;;5076138;28;20113;-34
2023/10/12 12:34:51;;;;;;;4.45;0.75;;;14.30;99.90;;;;;;5066205;28;20147;-34
2023/10/12 12:37:17;;;;;;;4.93;0.50;;;14.30;99.90;;;;;;5075140;28;20546;-34
2023/10/12 12:39:43;;;;;;;7.47;0.75;;;14.40;99.90;;;;;;5071156;28;20053;-34
2023/10/12 12:42:10;;;;;;;4.20;0.70;;;14.40;99.90;;;;;;5065265;28;20098;-34
2023/10/12 12:44:42;;;;;;;3.95;0.75;;;14.40;99.90;;;;;;5063507;28;20055;-34
2023/10/12 12:47:09;;;;;;;4.57;0.50;;;14.40;99.90;;;;;;5037570;28;20052;-34
2023/10/12 12:49:35;;;;;;;3.33;0.40;;;14.40;99.90;;;;;;5080559;28;20036;-34
2023/10/12 12:52:00;;;;;;;4.97;0.95;;;14.30;99.90;;;;;;5071141;28;20060;-34
2023/10/12 12:54:26;;;;;;;3.35;0.50;;;14.30;99.90;;;;;;5051023;28;20155;-34
2023/10/12 12:56:54;;;;;;;2.28;0.55;;;14.30;99.90;;;;;;5071709;28;20052;-34
2023/10/12 12:59:24;;;;;;;4.60;0.73;;;14.30;99.90;;;;;;5071695;28;20362;-34
2023/10/12 13:01:50;;;;;;;3.92;1.10;;;14.20;99.90;;;;;;5054713;28;20106;-34
2023/10/12 13:04:17;;;;;;;4.40;0.63;;;14.20;99.90;;;;;;5063240;28;20530;-34
2023/10/12 13:06:43;;;;;;;4.50;0.77;;;14.20;99.90;;;;;;5057943;28;20079;-43
2023/10/12 13:09:28;;;;;;;4.90;0.75;;;14.10;99.90;;;;;;5059250;28;20062;-36
2023/10/12 13:11:57;;;;;;;4.57;0.57;;;14.10;99.90;;;;;;5062644;28;20048;-34
2023/10/12 13:14:22;;;;;;;9.10;1.27;;;14.10;99.90;;;;;;5062226;28;20053;-34
2023/10/12 13:16:49;;;;;;;3.05;0.60;;;14.10;99.90;;;;;;5046087;28;20063;-34
2023/10/12 13:19:17;;;;;;;3.33;0.93;;;14.10;99.90;;;;;;5064949;28;20049;-35
2023/10/12 13:21:46;;;;;;;6.45;1.50;;;14.10;99.90;;;;;;5066984;28;20379;-34
2023/10/12 13:24:12;;;;;;;5.72;1.00;;;14.00;99.90;;;;;;5074152;28;20048;-34
2023/10/12 13:26:43;;;;;;;6.18;1.00;;;14.00;99.90;;;;;;5063454;28;20059;-34
2023/10/12 13:29:13;;;;;;;1.95;0.63;;;13.90;99.90;;;;;;5089566;28;20051;-34
2023/10/12 13:31:39;;;;;;;3.95;0.70;;;13.90;99.90;;;;;;5082409;28;20480;-34
2023/10/12 13:34:05;;;;;;;6.50;1.38;;;13.90;99.90;;;;;;5082041;28;20130;-34
2023/10/12 13:36:32;;;;;;;6.03;0.90;;;13.90;99.90;;;;;;5079857;28;20229;-34
2023/10/12 13:38:59;;;;;;;6.32;1.15;;;13.90;99.90;;;;;;5079431;28;20043;-34
2023/10/12 13:41:25;;;;;;;3.65;0.70;;;13.90;99.90;;;;;;5063944;28;20044;-35
2023/10/12 13:43:51;;;;;;;5.45;1.25;;;13.90;99.90;;;;;;5082608;28;20504;-33
2023/10/12 13:46:16;;;;;;;5.55;0.85;;;13.90;99.90;;;;;;5079591;28;20072;-34
2023/10/12 13:48:42;;;;;;;5.22;1.08;;;13.90;99.90;;;;;;5077507;28;20040;-34
2023/10/12 13:51:08;;;;;;;5.20;1.75;;;13.90;99.90;;;;;;5072630;28;20080;-39
2023/10/12 13:53:37;;;;;;;4.07;0.95;;;13.90;99.90;;;;;;5078506;28;20052;-34
2023/10/12 13:56:08;;;;;;;6.68;1.35;;;13.90;99.90;;;;;;5089777;28;20047;-34
2023/10/12 13:58:35;;;;;;;5.50;0.87;;;13.90;99.90;;;;;;5085404;28;20048;-35
2023/10/12 14:01:04;;;;;;;2.22;0.85;;;13.90;99.90;;;;;;5086593;28;20059;-34
2023/10/12 14:03:38;;;;;;;3.83;1.27;;;13.80;99.90;;;;;;5070403;28;20056;-34
2023/10/12 14:06:07;;;;;;;7.32;1.23;;;13.80;99.90;;;;;;5083611;28;20491;-35
2023/10/12 14:08:36;;;;;;;6.53;1.00;;;13.80;99.90;;;;;;5076944;28;20107;-34
2023/10/12 14:11:06;;;;;;;6.63;0.90;;;13.80;99.90;;;;;;5076533;28;20056;-34
2023/10/12 14:13:33;;;;;;;6.97;1.27;;;13.80;99.90;;;;;;5080811;28;20055;-34
2023/10/12 14:15:59;;;;;;;7.03;1.10;;;13.80;99.90;;;;;;5078008;28;20045;-34
2023/10/12 14:18:28;;;;;;;5.63;0.90;;;13.70;99.90;;;;;;5081361;28;20167;-34
2023/10/12 14:20:54;;;;;;;6.57;1.27;;;13.70;99.90;;;;;;5082236;28;20059;-34
2023/10/12 14:23:25;;;;;;;5.43;0.65;;;13.70;99.90;;;;;;5071747;28;20051;-35
2023/10/12 14:25:51;;;;;;;5.03;0.77;;;13.60;99.90;;;;;;5060544;28;21462;-34
2023/10/12 14:28:19;;;;;;;5.15;1.05;;;13.60;99.90;;;;;;5064455;28;20513;-34
2023/10/12 14:30:47;;;;;;;3.72;0.90;;;13.60;99.90;;;;;;5061400;28;20531;-34
2023/10/12 14:33:19;;;;;;;4.55;1.02;;;13.60;99.90;;;;;;5060799;28;20040;-34
2023/10/12 14:35:46;;;;;;;5.13;1.00;;;13.70;99.90;;;;;;5065237;28;20052;-34
2023/10/12 14:38:14;;;;;;;2.97;0.80;;;13.60;99.90;;;;;;5062671;28;20073;-43
2023/10/12 14:40:42;;;;;;;3.45;1.00;;;13.60;99.90;;;;;;5064760;28;20056;-34
2023/10/12 14:43:12;;;;;;;4.22;1.00;;;13.60;99.90;;;;;;5065185;28;20551;-36
2023/10/12 14:45:50;;;;;;;7.00;1.00;;;13.60;99.90;;;;;;5060341;28;20051;-34
2023/10/12 14:48:20;;;;;;;4.32;0.95;;;13.60;99.90;;;;;;5068299;28;20058;-34
2023/10/12 14:50:49;;;;;;;4.85;1.13;;;13.60;99.90;;;;;;5064588;28;20490;-34
2023/10/12 14:53:16;;;;;;;4.32;1.35;;;13.70;99.90;;;;;;5061279;28;20058;-34
2023/10/12 14:55:43;;;;;;;5.05;1.20;;;13.70;99.90;;;;;;5060718;28;20063;-34
2023/10/12 14:58:09;;;;;;;7.15;1.23;;;13.70;99.90;;;;;;5058849;28;20486;-34
2023/10/12 15:00:36;;;;;;;4.18;1.20;;;13.60;99.90;;;;;;5069910;28;20064;-34
2023/10/12 15:03:02;;;;;;;3.60;1.60;;;13.70;99.90;;;;;;5063125;28;20060;-36
2023/10/12 15:05:30;;;;;;;4.43;1.25;;;13.60;99.90;;;;;;5063455;28;20045;-34
2023/10/12 15:07:56;;;;;;;4.22;1.05;;;13.60;99.90;;;;;;5065385;28;20458;-34
2023/10/12 15:10:23;;;;;;;5.75;1.00;;;13.60;99.90;;;;;;5065118;28;20049;-34
2023/10/12 15:12:50;;;;;;;3.45;1.23;;;13.60;99.90;;;;;;5062191;28;20516;-34
2023/10/12 15:15:20;;;;;;;6.82;1.70;;;13.60;99.90;;;;;;5044877;28;20044;-34